KBBG

Branson Airport

Branson, Missouri, USA
KBBG 221537Z 2216/2312 13009KT P6SM OVC018 WS020/19045KT FM221700 16012G20KT 5SM -RA BR OVC012 WS020/18045KT FM230300 25014G24KT 6SM -RA BR OVC007 FM230800 28015G25KT P6SM -FZRASN OVC015 FM231000 29012G20KT P6SM OVC015
Issued Valid From Valid To
Jan-22 @ 15:37 UTC
(an hour ago)
Jan-22 @ 16:00 UTC
(58 minutes ago)
Jan-23 @ 12:00 UTC
(in 19 hours)
Jan-22 @ 16:00 to Jan-22 @ 17:00
KBBG 221537Z 2216/2312 13009KT P6SM OVC018 WS020/19045KT
Wind Visibility Clouds
130° at 9 knots
 Wind shear 2,000' AGL from 190° at 45 knots
Greater than 6 miles
  • Overcast at 1,800' AGL
From Jan-22 @ 17:00 to Jan-23 @ 03:00
FM221700 16012G20KT 5SM -RA BR OVC012 WS020/18045KT
Wind Visibility Clouds Conditions
160° at 12 knots
 Gusting to 20 knots
 Wind shear 2,000' AGL from 180° at 45 knots
5 miles
  • Overcast at 1,200' AGL
  • Light Rain
  • Mist
From Jan-23 @ 03:00 to Jan-23 @ 08:00
FM230300 25014G24KT 6SM -RA BR OVC007
Wind Visibility Clouds Conditions
250° at 14 knots
 Gusting to 24 knots
6 miles
  • Overcast at 700' AGL
  • Light Rain
  • Mist
From Jan-23 @ 08:00 to Jan-23 @ 10:00
FM230800 28015G25KT P6SM -FZRASN OVC015
Wind Visibility Clouds Conditions
280° at 15 knots
 Gusting to 25 knots
Greater than 6 miles
  • Overcast at 1,500' AGL
  • Light Freezing
  • Light Rain
  • Snow
From Jan-23 @ 10:00 to Jan-23 @ 12:00
FM231000 29012G20KT P6SM OVC015
Wind Visibility Clouds
290° at 12 knots
 Gusting to 20 knots
Greater than 6 miles
  • Overcast at 1,500' AGL
KBBG 221537Z 2216/2312 13009KT P6SM OVC018 WS020/19045KT FM221700 16012G20KT 5SM -RA BR OVC012 WS020/18045KT FM230300 25014G24KT 6SM -RA BR OVC007 FM230800 28015G25KT P6SM -FZRASN OVC015 FM231000 29012G20KT P6SM OVC015
Issued Jan-22 @ 15:37 UTC
(an hour ago)
Valid From Jan-22 @ 16:00 UTC
(58 minutes ago)
Valid To Jan-23 @ 12:00 UTC
(in 19 hours)
Jan-22 @ 16:00 - Jan-22 @ 17:00
Wind Visibility
130° at 9 knots Greater than 6 miles
Clouds
  • Overcast at 1,800' AGL
From Jan-22 @ 17:00 - Jan-23 @ 03:00
Wind Visibility
160° at 12 knots
 Gusting to 20 knots
5 miles
Clouds
  • Overcast at 1,200' AGL
Conditions
  • Light Rain
  • Mist
From Jan-23 @ 03:00 - Jan-23 @ 08:00
Wind Visibility
250° at 14 knots
 Gusting to 24 knots
6 miles
Clouds
  • Overcast at 700' AGL
Conditions
  • Light Rain
  • Mist
From Jan-23 @ 08:00 - Jan-23 @ 10:00
Wind Visibility
280° at 15 knots
 Gusting to 25 knots
Greater than 6 miles
Clouds
  • Overcast at 1,500' AGL
Conditions
  • Light Freezing
  • Light Rain
  • Snow
From Jan-23 @ 10:00 - Jan-23 @ 12:00
Wind Visibility
290° at 12 knots
 Gusting to 20 knots
Greater than 6 miles
Clouds
  • Overcast at 1,500' AGL